Pagina principale
METAR-TAF:

METAR-TAF

Aeroporti :

Aeroporto Internazionale di Harare

Harare, Zimbabwe

latitudine: 17-55S, longitudine: 031-08E, altezza: 1479 m

Osservazione

Il bollettino è stato emesso 3 ore e 58 minuti fa, alle 21:00 UTC
Vento 4 kt da est
Temperature 12°C
Umidità 67%
Pressione 1028 hPa
Visibilità 10 km o più
nessuna nube inferiore a 1500 m e nessun cumulonembo

METAR: FVHA 152100Z 09004KT CAVOK 12/06 Q1028 NOSIG

Ora: 02:58 (00:58 UTC)

Previsione

Il bollettino è stato emesso 8 ore e 58 minuti fa, alle 16:00 UTC
Previsione valida dal 15 alle 18 UTC al 16 alle 24 UTC
Vento 8 kt da est/nord-est
Visibilità 10 km o più
nessuna nube inferiore a 1500 m e nessun cumulonembo

TAF: FVHA 151600Z 1518/1624 06008KT CAVOK

Osservazioni e previsioni meteorologiche di più di 4000 aeroporti (messaggi METAR e TAF).

Le stazioni disponibili sono rappresentate dai dischi gialli e rossi sulla carta.

Puntare il mouse per vedere il nome della stazione.

Clicca sopra per visualizzare le osservazioni e previsioni meteorologiche.

Per cambiare la mappa : fare clic sui pulsanti verdi con una croce nera per ingrandire, il pulsante verde con un trattino per diminuire, o sulla freccia verde per le mappe adiacenti.


METAR-TAF: